Search for airport 
image banner adimage banner adimage banner ad
image banner ad

PS98 - Travis

Located in Smicksburg, United States

ICAO - PS98, IATA -

Data provided by Airmate  

General information

Coordinates: N40°52'58" W79°11'47"
Elevation is 1320 feet MSL.
Magnetic variation is -08° East
View others Airports in Pennsylvania

Operational data

Special qualification required
Current time UTC:
Current local time:
METAR: KIDI 190015Z AUTO 00000KT 10SM CLR 22/07 A3032 RMK A01
View NOTAMs / SUP AIP / TFR affecting this airport [VIEW]
Communications frequencies: [VIEW]

Runways:

RWY identifierQFULength (ft)Width (ft)SurfaceLDA (ft)
E1800100GRASS
W1800100GRASS

Airport contact information

Address: Smicksburg United States

Satellite view of PS98